createdAt,value
2018-12-30T09:23:08.084Z,1.42
2018-12-30T09:25:36.489Z,2.72
2018-12-30T09:28:04.913Z,1.67
2018-12-30T09:30:33.400Z,1.52
2018-12-30T09:33:01.817Z,1.50
2018-12-30T09:35:30.229Z,2.50
2018-12-30T09:37:59.073Z,1.27
2018-12-30T09:40:27.486Z,2.12
2018-12-30T09:42:55.895Z,1.70
2018-12-30T09:45:25.539Z,2.85
2018-12-30T09:47:53.945Z,1.90
2018-12-30T09:50:22.365Z,1.05
2018-12-30T09:52:50.982Z,3.12
2018-12-30T09:55:19.400Z,1.57
2018-12-30T09:57:47.824Z,2.17
2018-12-30T10:00:16.631Z,1.82
2018-12-30T10:02:45.048Z,3.05
2018-12-30T10:05:13.529Z,1.40
2018-12-30T10:07:42.944Z,2.02
2018-12-30T10:10:11.361Z,1.70
2018-12-30T10:12:39.870Z,1.50
2018-12-30T10:15:10.019Z,1.30
2018-12-30T10:17:38.602Z,1.32
2018-12-30T10:20:07.855Z,1.75
2018-12-30T10:22:36.580Z,1.92
2018-12-30T10:25:05.933Z,1.65
2018-12-30T10:27:35.918Z,1.20
2018-12-30T10:30:07.222Z,1.32
2018-12-30T10:32:35.651Z,1.10
2018-12-30T10:35:04.441Z,2.30
2018-12-30T10:37:33.177Z,3.92
2018-12-30T10:40:01.603Z,2.75
2018-12-30T10:42:30.028Z,1.17
2018-12-30T10:44:58.620Z,1.75
2018-12-30T10:47:27.031Z,2.25
2018-12-30T10:49:55.450Z,1.25
2018-12-30T10:52:24.682Z,1.90
2018-12-30T10:54:53.097Z,1.52
2018-12-30T10:57:21.509Z,1.60
2018-12-30T10:59:50.226Z,1.60
2018-12-30T11:02:18.705Z,1.20
2018-12-30T11:04:47.182Z,1.70
2018-12-30T11:07:15.983Z,1.15
2018-12-30T11:09:44.394Z,4.20
2018-12-30T11:12:12.951Z,3.33
2018-12-30T11:14:41.654Z,3.90
2018-12-30T11:17:10.079Z,2.58
2018-12-30T11:19:38.491Z,3.98
2018-12-30T11:22:07.174Z,5.08
2018-12-30T11:24:35.733Z,5.42
2018-12-30T11:27:04.535Z,7.37
2018-12-30T11:29:34.203Z,6.28
2018-12-30T11:32:02.842Z,5.55
2018-12-30T11:34:31.250Z,7.37
2018-12-30T11:37:00.943Z,14.28
2018-12-30T11:39:29.364Z,24.75
2018-12-30T11:41:57.786Z,26.80
2018-12-30T11:44:26.989Z,27.37
2018-12-30T11:46:55.409Z,36.73
2018-12-30T11:49:23.848Z,26.30
2018-12-30T11:51:52.632Z,40.23
2018-12-30T11:54:21.061Z,22.58
2018-12-30T11:56:49.475Z,34.78
2018-12-30T11:59:19.333Z,27.48
2018-12-30T12:01:47.762Z,38.33
2018-12-30T12:04:16.179Z,23.85
2018-12-30T12:06:45.390Z,24.10
2018-12-30T12:09:13.842Z,36.30
2018-12-30T12:11:42.268Z,24.32
2018-12-30T12:14:10.922Z,29.48
2018-12-30T12:16:39.337Z,25.68
2018-12-30T12:19:07.763Z,35.35
2018-12-30T12:21:36.469Z,29.52
2018-12-30T12:24:04.975Z,27.95
2018-12-30T12:26:34.190Z,20.27
2018-12-30T12:29:03.564Z,22.45
2018-12-30T12:31:31.998Z,22.80
2018-12-30T12:34:00.415Z,25.17
2018-12-30T12:36:28.907Z,22.32
2018-12-30T12:38:57.330Z,18.50
2018-12-30T12:41:25.753Z,26.48
2018-12-30T12:43:54.667Z,22.42
2018-12-30T12:46:23.095Z,20.15
2018-12-30T12:48:51.524Z,18.55
2018-12-30T12:51:21.338Z,25.52
2018-12-30T12:53:49.769Z,18.42
2018-12-30T12:56:18.174Z,21.12
2018-12-30T12:58:46.645Z,61.92
2018-12-30T13:01:15.138Z,44.42
2018-12-30T13:03:43.551Z,41.10
2018-12-30T13:06:12.526Z,46.60
2018-12-30T13:08:40.949Z,45.90
2018-12-30T13:11:09.366Z,38.85
2018-12-30T13:13:38.883Z,31.55
2018-12-30T13:16:07.327Z,46.83
2018-12-30T13:18:35.743Z,38.88
2018-12-30T13:21:04.244Z,46.40
2018-12-30T13:23:32.653Z,40.65
2018-12-30T13:26:01.082Z,38.48
2018-12-30T13:28:35.474Z,51.23
2018-12-30T13:31:03.985Z,34.90
2018-12-30T13:33:32.455Z,35.75
2018-12-30T13:36:01.414Z,30.43
2018-12-30T13:38:29.826Z,37.17
2018-12-30T13:40:58.252Z,35.68
2018-12-30T13:43:26.930Z,37.30
2018-12-30T13:45:55.381Z,38.88
2018-12-30T13:48:23.798Z,37.55
2018-12-30T13:50:52.276Z,30.40
2018-12-30T13:53:20.714Z,33.98
2018-12-30T13:55:49.146Z,29.30
2018-12-30T13:58:18.525Z,26.15
2018-12-30T14:00:46.974Z,25.25
2018-12-30T14:03:15.462Z,29.37
2018-12-30T14:05:44.329Z,28.73
2018-12-30T14:08:12.752Z,26.52
2018-12-30T14:10:41.162Z,23.10
2018-12-30T14:13:09.803Z,29.12
2018-12-30T14:15:38.293Z,22.62
2018-12-30T14:18:06.709Z,21.23
2018-12-30T14:20:35.686Z,23.40
2018-12-30T14:23:04.109Z,25.92
2018-12-30T14:25:32.546Z,26.43
2018-12-30T14:28:01.326Z,22.15
2018-12-30T14:30:30.869Z,21.70
2018-12-30T14:32:59.303Z,28.98
2018-12-30T14:35:28.133Z,22.87
2018-12-30T14:37:56.547Z,30.37
2018-12-30T14:40:24.982Z,21.27
2018-12-30T14:42:54.578Z,20.90
2018-12-30T14:45:23.008Z,30.17
2018-12-30T14:47:51.436Z,21.87
2018-12-30T14:50:20.117Z,21.50
2018-12-30T14:52:48.530Z,20.25
2018-12-30T14:55:16.953Z,29.48
2018-12-30T14:57:45.506Z,22.62
2018-12-30T15:00:14.005Z,25.02
2018-12-30T15:02:42.420Z,28.40
2018-12-30T15:05:11.535Z,22.00
2018-12-30T15:07:39.953Z,14.58
2018-12-30T15:10:08.361Z,26.45
2018-12-30T15:12:39.795Z,18.50
2018-12-30T15:15:09.450Z,24.47
2018-12-30T15:17:37.904Z,15.58
2018-12-30T15:20:10.612Z,27.27
2018-12-30T15:22:39.041Z,17.27
2018-12-30T15:25:11.642Z,27.70
2018-12-30T15:27:39.471Z,22.10
2018-12-30T15:30:09.031Z,15.18
2018-12-30T15:32:37.457Z,17.42
2018-12-30T15:35:07.033Z,23.52
2018-12-30T15:37:35.460Z,21.60
2018-12-30T15:40:05.016Z,31.60
2018-12-30T15:42:34.114Z,23.87
2018-12-30T15:45:02.537Z,23.90
2018-12-30T15:47:30.951Z,15.78
2018-12-30T15:50:00.502Z,18.90
2018-12-30T15:52:28.917Z,22.65
2018-12-30T15:54:57.397Z,16.87
2018-12-30T15:57:26.149Z,16.62
2018-12-30T15:59:54.566Z,19.05
2018-12-30T16:02:22.977Z,18.70
2018-12-30T16:04:51.991Z,30.55
2018-12-30T16:07:20.410Z,20.97
2018-12-30T16:09:48.920Z,16.30
2018-12-30T16:12:18.650Z,20.05
2018-12-30T16:14:47.086Z,23.10
2018-12-30T16:17:15.504Z,18.27
2018-12-30T16:19:44.020Z,17.12
2018-12-30T16:22:12.433Z,17.95
2018-12-30T16:24:40.840Z,15.83
2018-12-30T16:27:09.337Z,21.23
2018-12-30T16:29:41.827Z,20.10
2018-12-30T16:32:10.268Z,20.20
2018-12-30T16:34:39.387Z,22.62
2018-12-30T16:37:07.801Z,18.67
2018-12-30T16:39:36.229Z,21.82
2018-12-30T16:42:05.254Z,22.55
2018-12-30T16:44:33.668Z,16.75
2018-12-30T16:47:02.270Z,27.77
2018-12-30T16:49:30.989Z,20.08
2018-12-30T16:51:59.414Z,23.02
2018-12-30T16:54:27.839Z,26.70
2018-12-30T16:56:57.067Z,22.35
2018-12-30T16:59:25.514Z,25.57
2018-12-30T17:01:54.005Z,29.45
2018-12-30T17:04:22.919Z,20.88
2018-12-30T17:06:51.331Z,17.55
2018-12-30T17:09:19.756Z,15.68
2018-12-30T17:11:48.252Z,20.85
2018-12-30T17:14:18.829Z,24.63
2018-12-30T17:16:47.242Z,13.90
2018-12-30T17:19:15.863Z,16.75
2018-12-30T17:21:44.281Z,11.28
2018-12-30T17:24:12.687Z,13.88
2018-12-30T17:26:43.041Z,15.05
2018-12-30T17:29:11.473Z,11.22
2018-12-30T17:31:40.740Z,12.30
2018-12-30T17:34:09.708Z,9.08
2018-12-30T17:36:38.200Z,13.08
2018-12-30T17:39:06.836Z,20.17
2018-12-30T17:41:36.129Z,16.57
2018-12-30T17:44:04.559Z,19.75
2018-12-30T17:46:32.991Z,20.37
2018-12-30T17:49:01.741Z,23.50
2018-12-30T17:51:30.175Z,27.67
2018-12-30T17:53:58.594Z,17.77
2018-12-30T17:56:27.370Z,21.45
2018-12-30T17:58:55.777Z,19.62
2018-12-30T18:01:24.198Z,21.35
2018-12-30T18:03:53.020Z,21.75
2018-12-30T18:06:21.450Z,20.20
2018-12-30T18:08:49.889Z,20.55
2018-12-30T18:11:18.452Z,28.45
2018-12-30T18:13:46.891Z,25.32
2018-12-30T18:16:15.314Z,21.77
2018-12-30T18:18:43.812Z,20.40
2018-12-30T18:21:12.305Z,28.32
2018-12-30T18:23:40.781Z,19.73
2018-12-30T18:26:10.039Z,27.20
2018-12-30T18:28:38.454Z,27.13
2018-12-30T18:31:08.128Z,32.05
2018-12-30T18:33:39.622Z,21.62
2018-12-30T18:36:08.049Z,25.25
2018-12-30T18:38:36.455Z,21.05
2018-12-30T18:41:05.061Z,16.30
2018-12-30T18:43:33.502Z,20.72
2018-12-30T18:46:01.921Z,20.20
2018-12-30T18:48:31.605Z,28.98
2018-12-30T18:51:00.106Z,18.90
2018-12-30T18:53:28.569Z,22.65
2018-12-30T18:55:57.194Z,23.90
2018-12-30T18:58:25.618Z,18.80
2018-12-30T19:00:54.145Z,19.80
2018-12-30T19:03:23.041Z,22.65
2018-12-30T19:05:51.467Z,20.57
2018-12-30T19:08:19.887Z,17.35
2018-12-30T19:10:48.586Z,16.23
2018-12-30T19:13:17.013Z,22.80
2018-12-30T19:15:45.446Z,29.15
2018-12-30T19:18:14.190Z,22.27
2018-12-30T19:20:42.648Z,25.77
2018-12-30T19:23:13.561Z,19.27
2018-12-30T19:25:42.308Z,14.80
2018-12-30T19:28:10.809Z,20.12
2018-12-30T19:30:39.261Z,17.30
2018-12-30T19:33:08.609Z,17.35
2018-12-30T19:35:38.394Z,26.62
2018-12-30T19:38:06.830Z,18.60
2018-12-30T19:40:35.331Z,18.23
2018-12-30T19:43:03.842Z,25.77
2018-12-30T19:45:32.273Z,19.37
2018-12-30T19:48:01.136Z,17.10
2018-12-30T19:50:29.575Z,17.52
2018-12-30T19:52:57.998Z,19.35
2018-12-30T19:55:26.890Z,17.98
2018-12-30T19:57:55.330Z,18.07
2018-12-30T20:00:23.756Z,19.30
2018-12-30T20:02:52.252Z,25.45
2018-12-30T20:05:20.684Z,16.73
2018-12-30T20:07:49.110Z,27.37
2018-12-30T20:10:17.570Z,17.27
2018-12-30T20:12:45.993Z,21.33
2018-12-30T20:15:14.422Z,16.82
2018-12-30T20:17:43.902Z,18.65
2018-12-30T20:20:12.335Z,21.97
2018-12-30T20:22:40.778Z,18.42
2018-12-30T20:25:09.603Z,20.15
2018-12-30T20:27:38.041Z,18.48
2018-12-30T20:30:08.426Z,25.10
2018-12-30T20:32:37.336Z,15.88
2018-12-30T20:35:05.980Z,17.90
2018-12-30T20:37:35.294Z,17.95
2018-12-30T20:40:05.534Z,19.90
2018-12-30T20:42:33.954Z,19.40
2018-12-30T20:45:02.384Z,14.30
2018-12-30T20:47:31.149Z,18.07
2018-12-30T20:49:59.591Z,24.27
2018-12-30T20:52:28.021Z,20.65
2018-12-30T20:54:56.690Z,26.25
2018-12-30T20:57:25.132Z,22.82
2018-12-30T20:59:53.547Z,28.90
2018-12-30T21:02:22.567Z,23.60
2018-12-30T21:04:51.012Z,21.20
2018-12-30T21:07:19.436Z,22.37
2018-12-30T21:09:48.318Z,28.92
2018-12-30T21:12:16.852Z,28.83
2018-12-30T21:14:45.358Z,26.30
2018-12-30T21:17:14.366Z,23.22
2018-12-30T21:19:42.797Z,16.97
2018-12-30T21:22:12.764Z,23.20
2018-12-30T21:24:41.277Z,31.05
2018-12-30T21:27:11.243Z,26.87
2018-12-30T21:29:39.884Z,25.95
2018-12-30T21:32:09.044Z,18.52
2018-12-30T21:34:37.469Z,28.20
2018-12-30T21:37:05.930Z,25.82
2018-12-30T21:39:34.702Z,18.42
2018-12-30T21:42:03.133Z,30.68
2018-12-30T21:44:31.565Z,26.73
2018-12-30T21:47:00.651Z,18.90
2018-12-30T21:49:29.139Z,18.48
2018-12-30T21:51:57.588Z,16.80
2018-12-30T21:54:27.170Z,23.57
2018-12-30T21:56:55.572Z,27.77
2018-12-30T21:59:23.997Z,17.05
2018-12-30T22:01:52.879Z,34.67
2018-12-30T22:04:21.293Z,19.15
2018-12-30T22:06:49.742Z,33.55
2018-12-30T22:09:18.514Z,22.50
2018-12-30T22:11:46.939Z,19.55
2018-12-30T22:14:15.358Z,18.92
2018-12-30T22:16:44.135Z,15.83
2018-12-30T22:19:12.542Z,15.98
2018-12-30T22:21:40.970Z,15.60
2018-12-30T22:24:09.498Z,16.75
2018-12-30T22:26:37.928Z,12.00
2018-12-30T22:29:06.362Z,15.90
2018-12-30T22:31:35.155Z,15.70
2018-12-30T22:34:09.491Z,15.45
2018-12-30T22:36:38.569Z,14.73
2018-12-30T22:39:07.272Z,13.32
2018-12-30T22:41:35.675Z,12.80
2018-12-30T22:44:04.168Z,12.13
2018-12-30T22:46:32.677Z,9.93
2018-12-30T22:49:01.096Z,8.53
2018-12-30T22:51:29.601Z,7.62
2018-12-30T22:53:58.008Z,12.10
2018-12-30T22:56:26.506Z,18.25
2018-12-30T22:58:55.726Z,10.55
2018-12-30T23:01:24.142Z,15.68
2018-12-30T23:03:52.558Z,15.15
2018-12-30T23:06:21.369Z,14.75
2018-12-30T23:08:49.786Z,11.43
2018-12-30T23:11:18.211Z,13.13
2018-12-30T23:13:47.074Z,13.22
2018-12-30T23:16:15.478Z,7.03
2018-12-30T23:18:43.885Z,8.38
2018-12-30T23:21:13.590Z,8.20
2018-12-30T23:23:42.072Z,10.80
2018-12-30T23:26:10.492Z,9.25
2018-12-30T23:28:39.143Z,9.78
2018-12-30T23:31:07.570Z,7.65
2018-12-30T23:33:35.985Z,10.82
2018-12-30T23:36:07.961Z,8.13
2018-12-30T23:38:36.426Z,9.68
2018-12-30T23:41:05.015Z,8.88
2018-12-30T23:43:33.720Z,9.83
2018-12-30T23:46:02.163Z,10.28
2018-12-30T23:48:30.594Z,7.78
2018-12-30T23:50:59.070Z,7.85
2018-12-30T23:53:27.480Z,6.37
2018-12-30T23:55:55.898Z,6.78
2018-12-30T23:58:24.503Z,10.88
